Terminal Aerodrome Forecast
Issued by NWS Wilmington, NC

Home | Current Version | Previous Version | Text Only | Print | Product List | Glossary On
Versions: 1 2 3 4 5 6 7 8 9 10 11 12 13 14
717
FTUS42 KILM 282320
TAFMYR
TAF
KMYR 282320Z 2900/2924 18007KT P6SM FEW120 BKN200
     FM290900 20004KT 6SM BR VCSH BKN018
     FM291500 20012KT P6SM BKN200
      AMD LTD TO CLD VIS AND WIND 2903/2910=

USA.gov is the U.S. government's official web portal to all federal, state and local government web resources and services.